sensor_id;sensor_type;location;lat;lon;timestamp;temperature;humidity
7028;DHT22;3555;53.248;10.336;2023-09-19T00:02:01;16.90;99.90
7028;DHT22;3555;53.248;10.336;2023-09-19T00:04:32;16.90;99.90
7028;DHT22;3555;53.248;10.336;2023-09-19T00:06:59;16.90;99.90
7028;DHT22;3555;53.248;10.336;2023-09-19T00:09:28;16.90;99.90
7028;DHT22;3555;53.248;10.336;2023-09-19T00:11:55;16.80;99.90
7028;DHT22;3555;53.248;10.336;2023-09-19T00:14:25;16.80;99.90
7028;DHT22;3555;53.248;10.336;2023-09-19T00:16:51;16.80;99.90
7028;DHT22;3555;53.248;10.336;2023-09-19T00:19:20;16.80;99.90
7028;DHT22;3555;53.248;10.336;2023-09-19T00:21:48;16.80;99.90
7028;DHT22;3555;53.248;10.336;2023-09-19T00:24:15;16.70;99.90
7028;DHT22;3555;53.248;10.336;2023-09-19T00:26:43;16.70;99.90
7028;DHT22;3555;53.248;10.336;2023-09-19T00:29:12;16.70;99.90
7028;DHT22;3555;53.248;10.336;2023-09-19T00:31:43;16.60;99.90
7028;DHT22;3555;53.248;10.336;2023-09-19T00:34:10;16.60;99.90
7028;DHT22;3555;53.248;10.336;2023-09-19T00:36:37;16.60;99.90
7028;DHT22;3555;53.248;10.336;2023-09-19T00:39:06;16.50;99.90
7028;DHT22;3555;53.248;10.336;2023-09-19T00:41:34;16.50;99.90
7028;DHT22;3555;53.248;10.336;2023-09-19T00:44:02;16.50;99.90
7028;DHT22;3555;53.248;10.336;2023-09-19T00:46:30;16.50;99.90
7028;DHT22;3555;53.248;10.336;2023-09-19T00:48:58;16.50;99.90
7028;DHT22;3555;53.248;10.336;2023-09-19T00:51:25;16.50;99.90
7028;DHT22;3555;53.248;10.336;2023-09-19T00:53:54;16.60;99.90
7028;DHT22;3555;53.248;10.336;2023-09-19T00:56:22;16.60;99.90
7028;DHT22;3555;53.248;10.336;2023-09-19T00:58:49;16.50;99.90
7028;DHT22;3555;53.248;10.336;2023-09-19T01:01:16;16.50;99.90
7028;DHT22;3555;53.248;10.336;2023-09-19T01:03:44;16.50;99.90
7028;DHT22;3555;53.248;10.336;2023-09-19T01:06:11;16.50;99.90
7028;DHT22;3555;53.248;10.336;2023-09-19T01:08:38;16.50;99.90
7028;DHT22;3555;53.248;10.336;2023-09-19T01:11:11;16.50;99.90
7028;DHT22;3555;53.248;10.336;2023-09-19T01:13:53;16.50;99.90
7028;DHT22;3555;53.248;10.336;2023-09-19T01:16:32;16.60;99.90
7028;DHT22;3555;53.248;10.336;2023-09-19T01:19:09;16.60;99.90
7028;DHT22;3555;53.248;10.336;2023-09-19T01:21:48;16.50;99.90
7028;DHT22;3555;53.248;10.336;2023-09-19T01:24:44;16.60;99.90
7028;DHT22;3555;53.248;10.336;2023-09-19T01:27:46;16.60;99.90
7028;DHT22;3555;53.248;10.336;2023-09-19T01:30:24;16.60;99.90
7028;DHT22;3555;53.248;10.336;2023-09-19T01:32:53;16.60;99.90
7028;DHT22;3555;53.248;10.336;2023-09-19T01:35:20;16.70;99.90
7028;DHT22;3555;53.248;10.336;2023-09-19T01:37:47;16.70;99.90
7028;DHT22;3555;53.248;10.336;2023-09-19T01:40:16;16.70;99.90
7028;DHT22;3555;53.248;10.336;2023-09-19T01:42:48;16.60;99.90
7028;DHT22;3555;53.248;10.336;2023-09-19T01:45:26;16.60;99.90
7028;DHT22;3555;53.248;10.336;2023-09-19T01:48:02;16.70;99.90
7028;DHT22;3555;53.248;10.336;2023-09-19T01:50:38;16.70;99.90
7028;DHT22;3555;53.248;10.336;2023-09-19T01:53:14;16.60;99.90
7028;DHT22;3555;53.248;10.336;2023-09-19T01:55:47;16.60;99.90
7028;DHT22;3555;53.248;10.336;2023-09-19T01:58:17;16.60;99.90
7028;DHT22;3555;53.248;10.336;2023-09-19T02:00:49;16.50;99.90
7028;DHT22;3555;53.248;10.336;2023-09-19T02:03:18;16.60;99.90
7028;DHT22;3555;53.248;10.336;2023-09-19T02:05:49;16.60;99.90
7028;DHT22;3555;53.248;10.336;2023-09-19T02:08:17;16.60;99.90
7028;DHT22;3555;53.248;10.336;2023-09-19T02:10:44;16.50;99.90
7028;DHT22;3555;53.248;10.336;2023-09-19T02:13:15;16.50;99.90
7028;DHT22;3555;53.248;10.336;2023-09-19T02:15:43;16.50;99.90
7028;DHT22;3555;53.248;10.336;2023-09-19T02:18:12;16.50;99.90
7028;DHT22;3555;53.248;10.336;2023-09-19T02:20:39;16.40;99.90
7028;DHT22;3555;53.248;10.336;2023-09-19T02:23:07;16.50;99.90
7028;DHT22;3555;53.248;10.336;2023-09-19T02:25:34;16.40;99.90
7028;DHT22;3555;53.248;10.336;2023-09-19T02:28:04;16.40;99.90
7028;DHT22;3555;53.248;10.336;2023-09-19T02:30:31;16.50;99.90
7028;DHT22;3555;53.248;10.336;2023-09-19T02:32:58;16.40;99.90
7028;DHT22;3555;53.248;10.336;2023-09-19T02:35:28;16.40;99.90
7028;DHT22;3555;53.248;10.336;2023-09-19T02:37:58;16.40;99.90
7028;DHT22;3555;53.248;10.336;2023-09-19T02:40:26;16.40;99.90
7028;DHT22;3555;53.248;10.336;2023-09-19T02:42:55;16.40;99.90
7028;DHT22;3555;53.248;10.336;2023-09-19T02:45:24;16.40;99.90
7028;DHT22;3555;53.248;10.336;2023-09-19T02:47:51;16.40;99.90
7028;DHT22;3555;53.248;10.336;2023-09-19T02:50:18;16.40;99.90
7028;DHT22;3555;53.248;10.336;2023-09-19T02:52:47;16.40;99.90
7028;DHT22;3555;53.248;10.336;2023-09-19T02:55:16;16.40;99.90
7028;DHT22;3555;53.248;10.336;2023-09-19T02:57:48;16.40;99.90
7028;DHT22;3555;53.248;10.336;2023-09-19T03:00:16;16.40;99.90
7028;DHT22;3555;53.248;10.336;2023-09-19T03:02:47;16.40;99.90
7028;DHT22;3555;53.248;10.336;2023-09-19T03:05:14;16.40;99.90
7028;DHT22;3555;53.248;10.336;2023-09-19T03:07:41;16.30;99.90
7028;DHT22;3555;53.248;10.336;2023-09-19T03:10:12;16.30;99.90
7028;DHT22;3555;53.248;10.336;2023-09-19T03:12:40;16.40;99.90
7028;DHT22;3555;53.248;10.336;2023-09-19T03:15:08;16.30;99.90
7028;DHT22;3555;53.248;10.336;2023-09-19T03:17:35;16.40;99.90
7028;DHT22;3555;53.248;10.336;2023-09-19T03:20:02;16.40;99.90
7028;DHT22;3555;53.248;10.336;2023-09-19T03:22:29;16.40;99.90
7028;DHT22;3555;53.248;10.336;2023-09-19T03:24:56;16.40;99.90
7028;DHT22;3555;53.248;10.336;2023-09-19T03:27:25;16.30;99.90
7028;DHT22;3555;53.248;10.336;2023-09-19T03:29:52;16.30;99.90
7028;DHT22;3555;53.248;10.336;2023-09-19T03:32:19;16.20;99.90
7028;DHT22;3555;53.248;10.336;2023-09-19T03:34:46;16.20;99.90
7028;DHT22;3555;53.248;10.336;2023-09-19T03:37:14;16.20;99.90
7028;DHT22;3555;53.248;10.336;2023-09-19T03:39:41;16.10;99.90
7028;DHT22;3555;53.248;10.336;2023-09-19T03:42:08;16.10;99.90
7028;DHT22;3555;53.248;10.336;2023-09-19T03:44:36;16.10;99.90
7028;DHT22;3555;53.248;10.336;2023-09-19T03:47:04;16.10;99.90
7028;DHT22;3555;53.248;10.336;2023-09-19T03:49:32;16.00;99.90
7028;DHT22;3555;53.248;10.336;2023-09-19T03:51:59;16.00;99.90
7028;DHT22;3555;53.248;10.336;2023-09-19T03:54:26;15.90;99.90
7028;DHT22;3555;53.248;10.336;2023-09-19T03:56:53;15.90;99.90
7028;DHT22;3555;53.248;10.336;2023-09-19T03:59:20;15.90;99.90
7028;DHT22;3555;53.248;10.336;2023-09-19T04:01:48;15.90;99.90
7028;DHT22;3555;53.248;10.336;2023-09-19T04:04:15;15.80;99.90
7028;DHT22;3555;53.248;10.336;2023-09-19T04:06:44;15.90;99.90
7028;DHT22;3555;53.248;10.336;2023-09-19T04:09:11;15.80;99.90
7028;DHT22;3555;53.248;10.336;2023-09-19T04:11:38;15.80;99.90
7028;DHT22;3555;53.248;10.336;2023-09-19T04:14:05;15.80;99.90
7028;DHT22;3555;53.248;10.336;2023-09-19T04:16:32;15.80;99.90
7028;DHT22;3555;53.248;10.336;2023-09-19T04:19:00;15.80;99.90
7028;DHT22;3555;53.248;10.336;2023-09-19T04:21:28;15.80;99.90
7028;DHT22;3555;53.248;10.336;2023-09-19T04:23:55;15.80;99.90
7028;DHT22;3555;53.248;10.336;2023-09-19T04:26:22;15.90;99.90
7028;DHT22;3555;53.248;10.336;2023-09-19T04:28:49;15.90;99.90
7028;DHT22;3555;53.248;10.336;2023-09-19T04:31:16;15.80;99.90
7028;DHT22;3555;53.248;10.336;2023-09-19T04:33:45;15.80;99.90
7028;DHT22;3555;53.248;10.336;2023-09-19T04:36:13;15.60;99.90
7028;DHT22;3555;53.248;10.336;2023-09-19T04:38:40;15.60;99.90
7028;DHT22;3555;53.248;10.336;2023-09-19T04:41:07;15.60;99.90
7028;DHT22;3555;53.248;10.336;2023-09-19T04:43:34;15.60;99.90
7028;DHT22;3555;53.248;10.336;2023-09-19T04:46:00;15.60;99.90
7028;DHT22;3555;53.248;10.336;2023-09-19T04:48:28;15.60;99.90
7028;DHT22;3555;53.248;10.336;2023-09-19T04:50:55;15.60;99.90
7028;DHT22;3555;53.248;10.336;2023-09-19T04:53:24;15.60;99.90
7028;DHT22;3555;53.248;10.336;2023-09-19T04:55:51;15.60;99.90
7028;DHT22;3555;53.248;10.336;2023-09-19T04:58:21;15.60;99.90
7028;DHT22;3555;53.248;10.336;2023-09-19T05:00:48;15.60;99.90
7028;DHT22;3555;53.248;10.336;2023-09-19T05:03:17;15.50;99.90
7028;DHT22;3555;53.248;10.336;2023-09-19T05:05:46;15.50;99.90
7028;DHT22;3555;53.248;10.336;2023-09-19T05:08:13;15.60;99.90
7028;DHT22;3555;53.248;10.336;2023-09-19T05:10:41;15.50;99.90
7028;DHT22;3555;53.248;10.336;2023-09-19T05:13:08;15.40;99.90
7028;DHT22;3555;53.248;10.336;2023-09-19T05:15:35;15.50;99.90
7028;DHT22;3555;53.248;10.336;2023-09-19T05:18:03;15.40;99.90
7028;DHT22;3555;53.248;10.336;2023-09-19T05:20:31;15.40;99.90
7028;DHT22;3555;53.248;10.336;2023-09-19T05:23:01;15.30;99.90
7028;DHT22;3555;53.248;10.336;2023-09-19T05:25:29;15.30;99.90
7028;DHT22;3555;53.248;10.336;2023-09-19T05:27:58;15.40;99.90
7028;DHT22;3555;53.248;10.336;2023-09-19T05:30:29;15.30;99.90
7028;DHT22;3555;53.248;10.336;2023-09-19T05:32:56;15.40;99.90
7028;DHT22;3555;53.248;10.336;2023-09-19T05:35:23;15.40;99.90
7028;DHT22;3555;53.248;10.336;2023-09-19T05:37:52;15.30;99.90
7028;DHT22;3555;53.248;10.336;2023-09-19T05:40:20;15.30;99.90
7028;DHT22;3555;53.248;10.336;2023-09-19T05:42:47;15.30;99.90
7028;DHT22;3555;53.248;10.336;2023-09-19T05:45:17;15.30;99.90
7028;DHT22;3555;53.248;10.336;2023-09-19T05:47:48;15.20;99.90
7028;DHT22;3555;53.248;10.336;2023-09-19T05:50:15;15.20;99.90
7028;DHT22;3555;53.248;10.336;2023-09-19T05:52:42;15.30;99.90
7028;DHT22;3555;53.248;10.336;2023-09-19T05:55:10;15.20;99.90
7028;DHT22;3555;53.248;10.336;2023-09-19T05:57:37;15.20;99.90
7028;DHT22;3555;53.248;10.336;2023-09-19T06:00:06;15.10;99.90
7028;DHT22;3555;53.248;10.336;2023-09-19T06:02:37;15.20;99.90
7028;DHT22;3555;53.248;10.336;2023-09-19T06:05:04;15.30;99.90
7028;DHT22;3555;53.248;10.336;2023-09-19T06:07:35;15.30;99.90
7028;DHT22;3555;53.248;10.336;2023-09-19T06:10:03;15.40;99.90
7028;DHT22;3555;53.248;10.336;2023-09-19T06:12:32;15.50;99.90
7028;DHT22;3555;53.248;10.336;2023-09-19T06:15:03;15.60;99.90
7028;DHT22;3555;53.248;10.336;2023-09-19T06:17:30;15.70;99.90
7028;DHT22;3555;53.248;10.336;2023-09-19T06:19:59;15.80;99.90
7028;DHT22;3555;53.248;10.336;2023-09-19T06:22:25;16.00;99.90
7028;DHT22;3555;53.248;10.336;2023-09-19T06:24:52;16.20;99.90
7028;DHT22;3555;53.248;10.336;2023-09-19T06:27:19;16.30;99.90
7028;DHT22;3555;53.248;10.336;2023-09-19T06:29:47;16.50;99.90
7028;DHT22;3555;53.248;10.336;2023-09-19T06:32:14;16.70;99.90
7028;DHT22;3555;53.248;10.336;2023-09-19T06:34:41;16.80;86.30
7028;DHT22;3555;53.248;10.336;2023-09-19T06:37:10;16.70;66.30
7028;DHT22;3555;53.248;10.336;2023-09-19T06:39:37;16.90;99.90
7028;DHT22;3555;53.248;10.336;2023-09-19T06:42:04;17.10;1.00
7028;DHT22;3555;53.248;10.336;2023-09-19T06:44:31;17.10;99.90
7028;DHT22;3555;53.248;10.336;2023-09-19T06:46:58;17.20;99.90
7028;DHT22;3555;53.248;10.336;2023-09-19T06:49:25;17.30;99.90
7028;DHT22;3555;53.248;10.336;2023-09-19T06:51:54;17.50;99.90
7028;DHT22;3555;53.248;10.336;2023-09-19T06:54:22;17.60;1.00
7028;DHT22;3555;53.248;10.336;2023-09-19T06:56:49;17.70;1.00
7028;DHT22;3555;53.248;10.336;2023-09-19T06:59:16;17.70;1.00
7028;DHT22;3555;53.248;10.336;2023-09-19T07:01:43;17.80;99.90
7028;DHT22;3555;53.248;10.336;2023-09-19T07:04:10;17.90;1.00
7028;DHT22;3555;53.248;10.336;2023-09-19T07:06:38;18.10;1.00
7028;DHT22;3555;53.248;10.336;2023-09-19T07:09:05;18.30;99.90
7028;DHT22;3555;53.248;10.336;2023-09-19T07:11:35;18.20;99.90
7028;DHT22;3555;53.248;10.336;2023-09-19T07:14:02;18.10;1.00
7028;DHT22;3555;53.248;10.336;2023-09-19T07:16:31;18.00;1.00
7028;DHT22;3555;53.248;10.336;2023-09-19T07:18:58;17.80;99.90
7028;DHT22;3555;53.248;10.336;2023-09-19T07:21:25;17.80;62.80
7028;DHT22;3555;53.248;10.336;2023-09-19T07:23:51;17.60;25.60
7028;DHT22;3555;53.248;10.336;2023-09-19T07:26:18;17.50;99.90
7028;DHT22;3555;53.248;10.336;2023-09-19T07:28:46;17.50;1.00
7028;DHT22;3555;53.248;10.336;2023-09-19T07:31:13;17.50;1.00
7028;DHT22;3555;53.248;10.336;2023-09-19T07:33:40;17.50;1.00
7028;DHT22;3555;53.248;10.336;2023-09-19T07:36:10;17.50;99.90
7028;DHT22;3555;53.248;10.336;2023-09-19T07:38:39;17.40;1.00
7028;DHT22;3555;53.248;10.336;2023-09-19T07:41:06;17.40;1.00
7028;DHT22;3555;53.248;10.336;2023-09-19T07:43:34;17.40;1.00
7028;DHT22;3555;53.248;10.336;2023-09-19T07:46:06;17.40;1.00
7028;DHT22;3555;53.248;10.336;2023-09-19T07:48:34;17.50;99.90
7028;DHT22;3555;53.248;10.336;2023-09-19T07:51:03;17.60;99.90
7028;DHT22;3555;53.248;10.336;2023-09-19T07:53:30;17.80;1.00
7028;DHT22;3555;53.248;10.336;2023-09-19T07:56:03;18.00;61.00
7028;DHT22;3555;53.248;10.336;2023-09-19T07:58:30;18.00;1.00
7028;DHT22;3555;53.248;10.336;2023-09-19T08:01:03;18.00;99.90
7028;DHT22;3555;53.248;10.336;2023-09-19T08:03:31;18.10;99.90
7028;DHT22;3555;53.248;10.336;2023-09-19T08:05:58;18.00;99.90
7028;DHT22;3555;53.248;10.336;2023-09-19T08:08:25;17.90;37.40
7028;DHT22;3555;53.248;10.336;2023-09-19T08:10:53;17.60;97.70
7028;DHT22;3555;53.248;10.336;2023-09-19T08:13:22;17.50;1.00
7028;DHT22;3555;53.248;10.336;2023-09-19T08:15:49;17.70;1.00
7028;DHT22;3555;53.248;10.336;2023-09-19T08:18:16;18.10;1.00
7028;DHT22;3555;53.248;10.336;2023-09-19T08:20:49;18.40;1.00
7028;DHT22;3555;53.248;10.336;2023-09-19T08:23:16;18.50;1.00
7028;DHT22;3555;53.248;10.336;2023-09-19T08:25:43;18.60;1.00
7028;DHT22;3555;53.248;10.336;2023-09-19T08:28:10;18.70;1.00
7028;DHT22;3555;53.248;10.336;2023-09-19T08:30:43;18.70;99.90
7028;DHT22;3555;53.248;10.336;2023-09-19T08:33:09;18.80;99.90
7028;DHT22;3555;53.248;10.336;2023-09-19T08:35:36;18.70;99.90
7028;DHT22;3555;53.248;10.336;2023-09-19T08:38:06;18.80;99.90
7028;DHT22;3555;53.248;10.336;2023-09-19T08:40:37;18.70;99.90
7028;DHT22;3555;53.248;10.336;2023-09-19T08:43:05;18.80;99.90
7028;DHT22;3555;53.248;10.336;2023-09-19T08:45:33;18.80;99.90
7028;DHT22;3555;53.248;10.336;2023-09-19T08:48:11;18.80;99.90
7028;DHT22;3555;53.248;10.336;2023-09-19T08:50:46;18.90;99.90
7028;DHT22;3555;53.248;10.336;2023-09-19T08:53:21;18.70;99.90
7028;DHT22;3555;53.248;10.336;2023-09-19T08:55:53;18.70;99.90
7028;DHT22;3555;53.248;10.336;2023-09-19T08:58:25;18.50;5.90
7028;DHT22;3555;53.248;10.336;2023-09-19T09:00:55;18.40;99.90
7028;DHT22;3555;53.248;10.336;2023-09-19T09:03:23;18.40;99.90
7028;DHT22;3555;53.248;10.336;2023-09-19T09:05:51;18.50;99.90
7028;DHT22;3555;53.248;10.336;2023-09-19T09:08:20;18.60;66.80
7028;DHT22;3555;53.248;10.336;2023-09-19T09:10:48;18.80;99.90
7028;DHT22;3555;53.248;10.336;2023-09-19T09:13:16;19.10;99.90
7028;DHT22;3555;53.248;10.336;2023-09-19T09:15:43;19.40;1.00
7028;DHT22;3555;53.248;10.336;2023-09-19T09:18:11;19.50;1.00
7028;DHT22;3555;53.248;10.336;2023-09-19T09:20:38;19.40;1.00
7028;DHT22;3555;53.248;10.336;2023-09-19T09:23:06;19.50;1.00
7028;DHT22;3555;53.248;10.336;2023-09-19T09:25:52;19.60;1.00
7028;DHT22;3555;53.248;10.336;2023-09-19T09:28:23;19.60;1.00
7028;DHT22;3555;53.248;10.336;2023-09-19T09:30:51;19.60;1.00
7028;DHT22;3555;53.248;10.336;2023-09-19T09:33:18;19.60;1.00
7028;DHT22;3555;53.248;10.336;2023-09-19T09:35:49;19.60;1.00
7028;DHT22;3555;53.248;10.336;2023-09-19T09:38:18;19.70;1.00
7028;DHT22;3555;53.248;10.336;2023-09-19T09:40:51;19.80;1.00
7028;DHT22;3555;53.248;10.336;2023-09-19T09:43:31;19.70;1.00
7028;DHT22;3555;53.248;10.336;2023-09-19T09:46:12;19.80;1.00
7028;DHT22;3555;53.248;10.336;2023-09-19T09:48:57;19.80;1.00
7028;DHT22;3555;53.248;10.336;2023-09-19T09:51:38;19.80;1.00
7028;DHT22;3555;53.248;10.336;2023-09-19T09:54:12;19.50;1.00
7028;DHT22;3555;53.248;10.336;2023-09-19T09:56:54;19.60;1.00
7028;DHT22;3555;53.248;10.336;2023-09-19T09:59:44;19.70;1.00
7028;DHT22;3555;53.248;10.336;2023-09-19T10:02:13;19.70;1.00
7028;DHT22;3555;53.248;10.336;2023-09-19T10:04:42;19.80;1.00
7028;DHT22;3555;53.248;10.336;2023-09-19T10:07:25;19.90;1.00
7028;DHT22;3555;53.248;10.336;2023-09-19T10:09:57;20.00;1.00
7028;DHT22;3555;53.248;10.336;2023-09-19T10:12:32;19.90;99.90
7028;DHT22;3555;53.248;10.336;2023-09-19T10:15:02;20.00;1.00
7028;DHT22;3555;53.248;10.336;2023-09-19T10:17:34;19.90;99.90
7028;DHT22;3555;53.248;10.336;2023-09-19T10:20:03;19.70;1.00
7028;DHT22;3555;53.248;10.336;2023-09-19T10:22:43;19.80;1.00
7028;DHT22;3555;53.248;10.336;2023-09-19T10:25:24;19.90;1.00
7028;DHT22;3555;53.248;10.336;2023-09-19T10:27:54;20.00;1.00
7028;DHT22;3555;53.248;10.336;2023-09-19T10:30:24;20.10;1.00
7028;DHT22;3555;53.248;10.336;2023-09-19T10:32:57;20.20;99.90
7028;DHT22;3555;53.248;10.336;2023-09-19T10:35:26;20.20;1.00
7028;DHT22;3555;53.248;10.336;2023-09-19T10:37:56;20.00;99.90
7028;DHT22;3555;53.248;10.336;2023-09-19T10:40:24;20.00;99.90
7028;DHT22;3555;53.248;10.336;2023-09-19T10:43:01;19.80;99.90
7028;DHT22;3555;53.248;10.336;2023-09-19T10:45:31;19.50;99.90
7028;DHT22;3555;53.248;10.336;2023-09-19T10:47:58;19.60;99.90
7028;DHT22;3555;53.248;10.336;2023-09-19T10:50:27;19.60;99.90
7028;DHT22;3555;53.248;10.336;2023-09-19T10:53:00;19.40;99.90
7028;DHT22;3555;53.248;10.336;2023-09-19T10:55:31;19.60;99.90
7028;DHT22;3555;53.248;10.336;2023-09-19T10:58:00;19.80;1.00
7028;DHT22;3555;53.248;10.336;2023-09-19T11:00:53;19.90;99.90
7028;DHT22;3555;53.248;10.336;2023-09-19T11:03:22;19.50;99.90
7028;DHT22;3555;53.248;10.336;2023-09-19T11:06:02;19.50;99.90
7028;DHT22;3555;53.248;10.336;2023-09-19T11:08:56;19.70;99.90
7028;DHT22;3555;53.248;10.336;2023-09-19T11:11:45;19.60;99.90
7028;DHT22;3555;53.248;10.336;2023-09-19T11:14:40;19.40;99.90
7028;DHT22;3555;53.248;10.336;2023-09-19T11:17:42;19.40;99.90
7028;DHT22;3555;53.248;10.336;2023-09-19T11:20:30;19.40;99.90
7028;DHT22;3555;53.248;10.336;2023-09-19T11:23:28;19.60;99.90
7028;DHT22;3555;53.248;10.336;2023-09-19T11:25:56;19.40;99.90
7028;DHT22;3555;53.248;10.336;2023-09-19T11:28:35;19.60;99.90
7028;DHT22;3555;53.248;10.336;2023-09-19T11:34:44;19.80;99.90
7028;DHT22;3555;53.248;10.336;2023-09-19T11:40:36;19.50;99.90
7028;DHT22;3555;53.248;10.336;2023-09-19T11:43:30;19.60;99.90
7028;DHT22;3555;53.248;10.336;2023-09-19T11:46:09;19.70;99.90
7028;DHT22;3555;53.248;10.336;2023-09-19T11:48:39;19.60;99.90
7028;DHT22;3555;53.248;10.336;2023-09-19T11:51:13;19.50;99.90
7028;DHT22;3555;53.248;10.336;2023-09-19T11:53:45;19.60;99.90
7028;DHT22;3555;53.248;10.336;2023-09-19T11:56:16;19.60;99.90
7028;DHT22;3555;53.248;10.336;2023-09-19T11:58:44;19.80;1.00
7028;DHT22;3555;53.248;10.336;2023-09-19T12:01:15;20.00;99.90
7028;DHT22;3555;53.248;10.336;2023-09-19T12:03:55;19.80;99.90
7028;DHT22;3555;53.248;10.336;2023-09-19T12:06:25;19.80;99.90
7028;DHT22;3555;53.248;10.336;2023-09-19T12:08:55;19.90;99.90
7028;DHT22;3555;53.248;10.336;2023-09-19T12:11:23;19.90;99.90
7028;DHT22;3555;53.248;10.336;2023-09-19T12:13:51;20.00;99.90
7028;DHT22;3555;53.248;10.336;2023-09-19T12:16:20;19.80;99.90
7028;DHT22;3555;53.248;10.336;2023-09-19T12:18:49;19.70;99.90
7028;DHT22;3555;53.248;10.336;2023-09-19T12:21:25;19.70;99.90
7028;DHT22;3555;53.248;10.336;2023-09-19T12:24:05;19.80;99.90
7028;DHT22;3555;53.248;10.336;2023-09-19T12:26:39;19.80;99.90
7028;DHT22;3555;53.248;10.336;2023-09-19T12:29:12;19.80;99.90
7028;DHT22;3555;53.248;10.336;2023-09-19T12:31:48;19.80;99.90
7028;DHT22;3555;53.248;10.336;2023-09-19T12:34:16;19.80;99.90
7028;DHT22;3555;53.248;10.336;2023-09-19T12:36:46;19.80;99.90
7028;DHT22;3555;53.248;10.336;2023-09-19T12:39:23;19.70;99.90
7028;DHT22;3555;53.248;10.336;2023-09-19T12:41:51;19.70;99.90
7028;DHT22;3555;53.248;10.336;2023-09-19T12:44:19;19.70;99.90
7028;DHT22;3555;53.248;10.336;2023-09-19T12:46:46;19.80;99.90
7028;DHT22;3555;53.248;10.336;2023-09-19T12:49:16;19.90;99.90
7028;DHT22;3555;53.248;10.336;2023-09-19T12:51:43;19.90;99.90
7028;DHT22;3555;53.248;10.336;2023-09-19T12:54:11;19.90;99.90
7028;DHT22;3555;53.248;10.336;2023-09-19T12:56:41;20.10;99.90
7028;DHT22;3555;53.248;10.336;2023-09-19T12:59:12;20.00;99.90
7028;DHT22;3555;53.248;10.336;2023-09-19T13:01:40;20.00;99.90
7028;DHT22;3555;53.248;10.336;2023-09-19T13:04:13;20.00;99.90
7028;DHT22;3555;53.248;10.336;2023-09-19T13:06:44;20.00;99.90
7028;DHT22;3555;53.248;10.336;2023-09-19T13:09:12;20.10;99.90
7028;DHT22;3555;53.248;10.336;2023-09-19T13:11:42;20.00;99.90
7028;DHT22;3555;53.248;10.336;2023-09-19T13:14:17;20.00;99.90
7028;DHT22;3555;53.248;10.336;2023-09-19T13:16:58;20.10;99.90
7028;DHT22;3555;53.248;10.336;2023-09-19T13:19:39;20.10;99.90
7028;DHT22;3555;53.248;10.336;2023-09-19T13:22:37;20.00;99.90
7028;DHT22;3555;53.248;10.336;2023-09-19T13:25:07;20.10;99.90
7028;DHT22;3555;53.248;10.336;2023-09-19T13:27:39;20.30;99.90
7028;DHT22;3555;53.248;10.336;2023-09-19T13:30:07;20.30;99.90
7028;DHT22;3555;53.248;10.336;2023-09-19T13:32:34;20.30;99.90
7028;DHT22;3555;53.248;10.336;2023-09-19T13:35:01;20.20;99.90
7028;DHT22;3555;53.248;10.336;2023-09-19T13:37:28;20.10;99.90
7028;DHT22;3555;53.248;10.336;2023-09-19T13:39:55;20.10;99.90
7028;DHT22;3555;53.248;10.336;2023-09-19T13:42:24;20.10;99.90
7028;DHT22;3555;53.248;10.336;2023-09-19T13:44:55;20.10;99.90
7028;DHT22;3555;53.248;10.336;2023-09-19T13:47:22;20.10;99.90
7028;DHT22;3555;53.248;10.336;2023-09-19T13:49:50;20.20;99.90
7028;DHT22;3555;53.248;10.336;2023-09-19T13:52:18;20.30;99.90
7028;DHT22;3555;53.248;10.336;2023-09-19T13:54:45;20.30;99.90
7028;DHT22;3555;53.248;10.336;2023-09-19T13:57:12;20.30;99.90
7028;DHT22;3555;53.248;10.336;2023-09-19T13:59:40;20.30;99.90
7028;DHT22;3555;53.248;10.336;2023-09-19T14:02:07;20.50;99.90
7028;DHT22;3555;53.248;10.336;2023-09-19T14:04:34;20.50;99.90
7028;DHT22;3555;53.248;10.336;2023-09-19T14:07:01;20.40;99.90
7028;DHT22;3555;53.248;10.336;2023-09-19T14:09:29;20.30;99.90
7028;DHT22;3555;53.248;10.336;2023-09-19T14:11:56;20.30;99.90
7028;DHT22;3555;53.248;10.336;2023-09-19T14:14:22;20.30;99.90
7028;DHT22;3555;53.248;10.336;2023-09-19T14:16:51;20.20;99.90
7028;DHT22;3555;53.248;10.336;2023-09-19T14:19:18;20.30;99.90
7028;DHT22;3555;53.248;10.336;2023-09-19T14:21:45;20.20;99.90
7028;DHT22;3555;53.248;10.336;2023-09-19T14:24:16;20.00;99.90
7028;DHT22;3555;53.248;10.336;2023-09-19T14:26:45;20.00;99.90
7028;DHT22;3555;53.248;10.336;2023-09-19T14:29:12;20.00;99.90
7028;DHT22;3555;53.248;10.336;2023-09-19T14:31:40;20.00;99.90
7028;DHT22;3555;53.248;10.336;2023-09-19T14:34:08;20.10;99.90
7028;DHT22;3555;53.248;10.336;2023-09-19T14:36:36;20.00;99.90
7028;DHT22;3555;53.248;10.336;2023-09-19T14:39:04;19.90;99.90
7028;DHT22;3555;53.248;10.336;2023-09-19T14:41:31;19.90;99.90
7028;DHT22;3555;53.248;10.336;2023-09-19T14:43:58;19.90;99.90
7028;DHT22;3555;53.248;10.336;2023-09-19T14:46:24;19.90;99.90
7028;DHT22;3555;53.248;10.336;2023-09-19T14:48:51;20.00;99.90
7028;DHT22;3555;53.248;10.336;2023-09-19T14:51:20;20.00;99.90
7028;DHT22;3555;53.248;10.336;2023-09-19T14:53:47;20.00;99.90
7028;DHT22;3555;53.248;10.336;2023-09-19T14:56:14;19.80;99.90
7028;DHT22;3555;53.248;10.336;2023-09-19T14:58:44;19.80;99.90
7028;DHT22;3555;53.248;10.336;2023-09-19T15:01:13;19.80;99.90
7028;DHT22;3555;53.248;10.336;2023-09-19T15:03:41;19.80;99.90
7028;DHT22;3555;53.248;10.336;2023-09-19T15:06:10;19.80;99.90
7028;DHT22;3555;53.248;10.336;2023-09-19T15:08:41;19.50;99.90
7028;DHT22;3555;53.248;10.336;2023-09-19T15:11:11;19.40;99.90
7028;DHT22;3555;53.248;10.336;2023-09-19T15:13:38;19.40;1.00
7028;DHT22;3555;53.248;10.336;2023-09-19T15:16:06;19.50;99.90
7028;DHT22;3555;53.248;10.336;2023-09-19T15:18:34;19.50;1.00
7028;DHT22;3555;53.248;10.336;2023-09-19T15:21:03;19.50;1.00
7028;DHT22;3555;53.248;10.336;2023-09-19T15:23:30;19.50;1.00
7028;DHT22;3555;53.248;10.336;2023-09-19T15:25:59;19.50;1.00
7028;DHT22;3555;53.248;10.336;2023-09-19T15:28:26;19.40;1.00
7028;DHT22;3555;53.248;10.336;2023-09-19T15:30:58;19.40;1.00
7028;DHT22;3555;53.248;10.336;2023-09-19T15:33:25;19.50;1.00
7028;DHT22;3555;53.248;10.336;2023-09-19T15:35:52;19.50;1.00
7028;DHT22;3555;53.248;10.336;2023-09-19T15:38:19;19.50;1.00
7028;DHT22;3555;53.248;10.336;2023-09-19T15:40:47;19.50;1.00
7028;DHT22;3555;53.248;10.336;2023-09-19T15:43:15;19.50;1.00
7028;DHT22;3555;53.248;10.336;2023-09-19T15:45:42;19.60;1.00
7028;DHT22;3555;53.248;10.336;2023-09-19T15:48:09;19.50;1.00
7028;DHT22;3555;53.248;10.336;2023-09-19T15:50:36;19.50;1.00
7028;DHT22;3555;53.248;10.336;2023-09-19T15:53:03;19.40;1.00
7028;DHT22;3555;53.248;10.336;2023-09-19T15:55:30;19.40;1.00
7028;DHT22;3555;53.248;10.336;2023-09-19T15:57:57;19.30;1.00
7028;DHT22;3555;53.248;10.336;2023-09-19T16:00:25;19.20;1.00
7028;DHT22;3555;53.248;10.336;2023-09-19T16:02:52;19.20;1.00
7028;DHT22;3555;53.248;10.336;2023-09-19T16:05:20;19.10;1.00
7028;DHT22;3555;53.248;10.336;2023-09-19T16:07:47;19.10;1.00
7028;DHT22;3555;53.248;10.336;2023-09-19T16:10:14;19.20;1.00
7028;DHT22;3555;53.248;10.336;2023-09-19T16:12:41;19.20;1.00
7028;DHT22;3555;53.248;10.336;2023-09-19T16:15:08;19.20;1.00